Time;durP1;ratioP1;P1;durP2;ratioP2;P2;SDS_P1;SDS_P2;PMS_P1;PMS_P2;Temp;Humidity;BMP_temperature;BMP_pressure;BME280_temperature;BME280_humidity;BME280_pressure;Samples;Min_cycle;Max_cycle;Signal;HPM_P1;HPM_P2
2021/07/01 00:02:19;;;;;;;;;9.25;9.25;;;;;22.77;47.17;101309.56;5057094;28;45640;-58
2021/07/01 00:04:44;;;;;;;;;8.75;8.75;;;;;22.76;47.23;101314.00;5056844;28;46116;-58
2021/07/01 00:07:09;;;;;;;;;9.00;9.00;;;;;22.77;47.03;101304.25;5057019;28;45430;-59
2021/07/01 00:09:35;;;;;;;;;13.00;12.00;;;;;22.76;47.23;101311.34;5056745;28;45284;-59
2021/07/01 00:12:00;;;;;;;;;8.75;8.75;;;;;22.76;47.23;101316.63;5056787;28;45193;-59
2021/07/01 00:14:26;;;;;;;;;11.00;10.00;;;;;22.76;47.24;101313.13;5056339;28;46880;-59
2021/07/01 00:16:54;;;;;;;;;12.50;9.00;;;;;22.76;47.09;101314.00;5056395;28;45347;-59
2021/07/01 00:19:21;;;;;;;;;8.75;8.75;;;;;22.76;47.20;101308.72;5056452;28;45367;-59
2021/07/01 00:21:46;;;;;;;;;7.50;7.25;;;;;22.75;47.18;101301.72;5056690;28;45406;-59
2021/07/01 00:24:12;;;;;;;;;9.75;8.00;;;;;22.75;47.29;101311.44;5056538;28;45368;-59
2021/07/01 00:26:37;;;;;;;;;11.75;10.50;;;;;22.74;47.26;101304.44;5056268;28;45406;-59
2021/07/01 00:29:03;;;;;;;;;11.00;9.25;;;;;22.76;47.32;101311.34;5056433;28;45477;-59
2021/07/01 00:31:30;;;;;;;;;10.75;10.25;;;;;22.74;47.10;101307.94;5056596;28;45631;-59
2021/07/01 00:33:56;;;;;;;;;10.50;9.00;;;;;22.73;47.21;101308.88;5054879;28;46672;-59
2021/07/01 00:36:21;;;;;;;;;11.25;10.25;;;;;22.76;47.34;101308.72;5056235;28;45446;-59
2021/07/01 00:38:49;;;;;;;;;12.00;10.50;;;;;22.74;47.11;101305.31;5056318;28;45173;-58
2021/07/01 00:41:15;;;;;;;;;9.00;8.00;;;;;22.75;47.14;101311.44;5056976;28;45473;-59
2021/07/01 00:43:40;;;;;;;;;8.75;8.75;;;;;22.76;47.19;101310.50;5056194;28;45361;-59
2021/07/01 00:46:05;;;;;;;;;8.50;6.75;;;;;22.74;47.49;101304.44;5056088;28;45268;-59
2021/07/01 00:48:31;;;;;;;;;7.75;7.75;;;;;22.76;47.08;101308.72;5056284;28;45735;-59
2021/07/01 00:50:56;;;;;;;;;13.25;9.75;;;;;22.76;47.24;101307.84;5056548;28;45479;-59
2021/07/01 00:53:22;;;;;;;;;10.00;8.50;;;;;22.75;47.24;101307.00;5056043;28;46143;-58
2021/07/01 00:55:47;;;;;;;;;9.25;9.00;;;;;22.76;47.24;101302.56;5056142;28;45388;-58
2021/07/01 00:58:13;;;;;;;;;10.75;8.75;;;;;22.75;47.29;101307.00;5056488;28;45387;-58
2021/07/01 01:00:59;;;;;;;;;9.50;9.50;;;;;22.75;47.33;101301.72;5056397;28;45307;-58
2021/07/01 01:03:24;;;;;;;;;8.50;8.50;;;;;22.75;47.24;101300.84;5055838;28;47132;-59
2021/07/01 01:05:50;;;;;;;;;10.00;9.25;;;;;22.75;47.13;101301.72;5055790;28;45394;-58
2021/07/01 01:08:15;;;;;;;;;10.25;9.00;;;;;22.74;47.02;101300.03;5056326;28;45248;-58
2021/07/01 01:10:40;;;;;;;;;8.25;8.25;;;;;22.75;46.91;101307.00;5056409;28;45221;-58
2021/07/01 01:13:06;;;;;;;;;8.50;7.75;;;;;22.73;47.24;101302.72;5059205;28;46114;-58
2021/07/01 01:15:32;;;;;;;;;8.25;8.25;;;;;22.75;47.40;101304.38;5059230;28;45480;-59
2021/07/01 01:17:57;;;;;;;;;7.00;7.00;;;;;22.75;47.15;101311.44;5059439;28;45256;-58
2021/07/01 01:20:23;;;;;;;;;10.50;7.75;;;;;22.74;47.22;101305.31;5059570;28;45307;-60
2021/07/01 01:22:48;;;;;;;;;9.25;9.25;;;;;22.72;47.49;101301.88;5059124;28;46140;-58
2021/07/01 01:25:14;;;;;;;;;10.00;8.00;;;;;22.73;47.36;101298.31;5059436;28;45281;-58
2021/07/01 01:27:39;;;;;;;;;10.00;8.00;;;;;22.75;47.31;101300.84;5058153;28;45510;-58
2021/07/01 01:30:06;;;;;;;;;10.00;8.25;;;;;22.74;47.22;101299.16;5059300;28;45358;-58
2021/07/01 01:32:31;;;;;;;;;9.00;9.00;;;;;22.74;47.34;101300.03;5058943;28;45372;-58
2021/07/01 01:34:57;;;;;;;;;9.75;9.75;;;;;22.73;47.22;101303.59;5058956;28;45821;-59
2021/07/01 01:37:22;;;;;;;;;7.50;7.00;;;;;22.73;47.30;101303.59;5059187;28;45357;-58
2021/07/01 01:39:49;;;;;;;;;9.25;8.75;;;;;22.74;47.26;101301.78;5059321;28;45323;-59
2021/07/01 01:42:14;;;;;;;;;8.50;8.50;;;;;22.73;47.42;101300.94;5057771;28;45374;-58
2021/07/01 01:44:40;;;;;;;;;8.50;8.50;;;;;22.72;47.11;101306.31;5058780;28;45477;-59
2021/07/01 01:47:19;;;;;;;;;8.75;8.75;;;;;22.74;47.29;101304.44;5058968;28;45204;-58
2021/07/01 01:49:46;;;;;;;;;9.25;8.50;;;;;22.74;47.10;101310.59;5059524;28;45211;-59
2021/07/01 01:52:11;;;;;;;;;8.50;8.50;;;;;22.73;47.31;101314.16;5058735;28;46664;-58
2021/07/01 01:54:37;;;;;;;;;9.75;9.75;;;;;22.74;47.28;101309.72;5058663;28;45422;-59
2021/07/01 01:57:02;;;;;;;;;12.00;8.25;;;;;22.74;47.22;101302.66;5057365;28;45334;-60
2021/07/01 01:59:27;;;;;;;;;6.75;6.25;;;;;22.73;47.43;101306.25;5058849;28;45304;-59
2021/07/01 02:01:53;;;;;;;;;9.75;8.75;;;;;22.73;47.51;101297.44;5058365;28;52087;-59
2021/07/01 02:04:18;;;;;;;;;10.50;9.00;;;;;22.73;47.39;101295.66;5058862;28;45350;-59
2021/07/01 02:06:43;;;;;;;;;7.00;7.00;;;;;22.73;47.49;101295.66;5058678;28;45291;-59
2021/07/01 02:09:09;;;;;;;;;8.50;8.50;;;;;22.73;47.69;101293.03;5058947;28;45450;-59
2021/07/01 02:11:34;;;;;;;;;9.25;7.25;;;;;22.73;47.31;101287.75;5058511;28;45367;-58
2021/07/01 02:13:59;;;;;;;;;9.50;7.25;;;;;22.72;47.22;101286.03;5058232;28;45308;-58
2021/07/01 02:16:25;;;;;;;;;9.25;8.00;;;;;22.74;47.15;101292.09;5058570;28;45421;-58
2021/07/01 02:18:51;;;;;;;;;10.00;9.00;;;;;22.72;47.49;101283.41;5058977;28;45220;-58
2021/07/01 02:21:17;;;;;;;;;9.00;8.50;;;;;22.74;47.42;101294.72;5058474;28;46408;-58
2021/07/01 02:23:42;;;;;;;;;7.25;6.25;;;;;22.72;47.64;101286.03;5058156;28;45278;-58
2021/07/01 02:26:08;;;;;;;;;12.75;10.00;;;;;22.74;47.48;101288.56;5058393;28;45406;-58
2021/07/01 02:28:33;;;;;;;;;10.75;9.75;;;;;22.72;47.53;101290.44;5058431;28;45297;-58
2021/07/01 02:30:59;;;;;;;;;10.50;9.00;;;;;22.74;47.08;101293.88;5057971;28;46339;-58
2021/07/01 02:33:24;;;;;;;;;7.75;7.75;;;;;22.74;47.44;101296.50;5058116;28;45343;-58
2021/07/01 02:35:50;;;;;;;;;9.00;7.50;;;;;22.72;47.52;101291.31;5058437;28;45361;-58
2021/07/01 02:38:15;;;;;;;;;6.00;6.00;;;;;22.73;47.44;101287.75;5058121;28;45487;-58
2021/07/01 02:40:41;;;;;;;;;6.25;6.25;;;;;22.73;47.37;101286.88;5057895;28;45332;-58
2021/07/01 02:43:06;;;;;;;;;7.75;7.50;;;;;22.73;47.58;101287.75;5057827;28;45383;-58
2021/07/01 02:45:32;;;;;;;;;11.75;9.75;;;;;22.73;47.64;101285.09;5058021;28;45370;-59
2021/07/01 02:47:57;;;;;;;;;10.00;8.50;;;;;22.73;47.52;101287.75;5058127;28;45440;-58
2021/07/01 02:50:22;;;;;;;;;7.75;7.25;;;;;22.72;47.68;101280.75;5057628;28;46218;-58
2021/07/01 02:52:48;;;;;;;;;9.75;9.75;;;;;22.72;47.56;101275.47;5058196;28;45447;-58
2021/07/01 02:55:13;;;;;;;;;8.25;8.25;;;;;22.72;47.42;101283.41;5057845;28;45826;-58
2021/07/01 02:57:39;;;;;;;;;8.25;8.25;;;;;22.73;47.51;101282.47;5057958;28;45213;-58
2021/07/01 03:00:07;;;;;;;;;8.75;7.25;;;;;22.72;47.67;101280.75;5056370;28;47215;-58
2021/07/01 03:02:33;;;;;;;;;8.00;8.00;;;;;22.72;47.55;101274.59;5057591;28;45892;-59
2021/07/01 03:04:58;;;;;;;;;7.00;7.00;;;;;22.70;47.50;101275.56;5057789;28;45534;-58
2021/07/01 03:07:23;;;;;;;;;8.25;8.25;;;;;22.72;47.26;101280.75;5057737;28;45473;-58
2021/07/01 03:09:48;;;;;;;;;11.50;11.00;;;;;22.71;47.52;101268.47;5057744;28;45574;-59
2021/07/01 03:12:14;;;;;;;;;11.50;9.75;;;;;22.71;47.44;101271.13;5057434;28;45336;-59
2021/07/01 03:14:39;;;;;;;;;10.50;8.50;;;;;22.72;47.43;101271.97;5057571;28;45280;-59
2021/07/01 03:17:05;;;;;;;;;7.50;6.50;;;;;22.72;47.65;101275.47;5057794;28;45410;-59
2021/07/01 03:19:30;;;;;;;;;8.00;7.50;;;;;22.72;47.59;101278.09;5057416;28;46252;-58
2021/07/01 03:21:55;;;;;;;;;8.25;7.50;;;;;22.73;47.83;101276.31;5057441;28;45403;-58
2021/07/01 03:24:21;;;;;;;;;6.75;6.75;;;;;22.71;47.59;101279.03;5057597;28;45363;-59
2021/07/01 03:26:46;;;;;;;;;15.50;8.25;;;;;22.71;47.42;101271.13;5057455;28;45594;-58
2021/07/01 03:29:12;;;;;;;;;11.25;9.50;;;;;22.71;47.53;101268.47;5057136;28;46025;-59
2021/07/01 03:31:38;;;;;;;;;9.00;9.00;;;;;22.70;47.53;101272.94;5057158;28;45284;-59
2021/07/01 03:34:03;;;;;;;;;10.75;9.00;;;;;22.72;47.44;101275.47;5056592;28;45481;-58
2021/07/01 03:36:28;;;;;;;;;8.50;7.50;;;;;22.71;47.36;101276.41;5057475;28;45469;-58
2021/07/01 03:38:54;;;;;;;;;8.50;8.50;;;;;22.72;47.68;101274.59;5057077;28;45393;-58
2021/07/01 03:41:19;;;;;;;;;10.50;9.25;;;;;22.71;47.63;101276.41;5056963;28;45480;-59
2021/07/01 03:43:48;;;;;;;;;11.00;8.50;;;;;22.72;47.57;101278.09;5057263;28;45418;-59
2021/07/01 03:46:15;;;;;;;;;9.50;7.50;;;;;22.70;47.36;101278.22;5057245;28;45490;-59
2021/07/01 03:48:40;;;;;;;;;7.00;7.00;;;;;22.69;47.66;101275.63;5056826;28;46308;-59
2021/07/01 03:51:06;;;;;;;;;10.00;10.00;;;;;22.70;47.50;101272.06;5055612;28;45431;-59
2021/07/01 03:53:32;;;;;;;;;10.00;10.00;;;;;22.70;47.50;101277.34;5057098;28;45374;-59
2021/07/01 03:55:58;;;;;;;;;9.25;8.75;;;;;22.65;47.40;101282.06;5056924;28;45307;-59
2021/07/01 03:58:24;;;;;;;;;9.25;8.75;;;;;22.69;47.59;101280.91;5056999;28;45565;-59
2021/07/01 04:00:50;;;;;;;;;7.25;7.25;;;;;22.66;47.45;101278.44;5056701;28;45470;-59
2021/07/01 04:03:15;;;;;;;;;10.25;10.00;;;;;22.69;47.64;101287.06;5056860;28;45268;-59
2021/07/01 04:05:40;;;;;;;;;8.50;8.50;;;;;22.70;47.40;101282.63;5056975;28;45284;-59
2021/07/01 04:08:06;;;;;;;;;9.00;9.00;;;;;22.69;47.71;101284.44;5056560;28;45489;-59
2021/07/01 04:10:31;;;;;;;;;9.00;9.00;;;;;22.67;47.67;101282.78;5056564;28;45446;-59
2021/07/01 04:12:57;;;;;;;;;8.25;8.25;;;;;22.68;47.67;101287.16;5056798;28;45338;-58
2021/07/01 04:15:22;;;;;;;;;11.00;11.00;;;;;22.69;47.65;101280.91;5057016;28;45505;-59
2021/07/01 04:17:47;;;;;;;;;9.25;8.25;;;;;22.69;47.50;101276.50;5055190;28;46997;-59
2021/07/01 04:20:13;;;;;;;;;9.75;8.25;;;;;22.69;47.96;101280.91;5056467;28;45259;-59
2021/07/01 04:22:38;;;;;;;;;9.00;8.00;;;;;22.69;47.86;101270.34;5056614;28;45263;-59
2021/07/01 04:25:04;;;;;;;;;11.50;9.75;;;;;22.69;47.68;101273.00;5056599;28;45219;-58
2021/07/01 04:27:29;;;;;;;;;10.00;9.50;;;;;22.70;47.56;101290.56;5056216;28;45939;-58
2021/07/01 04:29:55;;;;;;;;;9.00;9.00;;;;;22.67;47.88;101281.03;5056647;28;45344;-59
2021/07/01 04:32:21;;;;;;;;;10.50;9.00;;;;;22.68;47.57;101287.16;5056504;28;45873;-59
2021/07/01 04:34:46;;;;;;;;;9.25;9.25;;;;;22.66;47.78;101284.59;5056700;28;46028;-59
2021/07/01 04:37:12;;;;;;;;;9.00;9.00;;;;;22.68;47.91;101289.78;5056233;28;45317;-58
2021/07/01 04:39:37;;;;;;;;;9.50;9.25;;;;;22.66;47.98;101296.94;5056148;28;45430;-58
2021/07/01 04:42:03;;;;;;;;;16.00;15.50;;;;;22.67;47.68;101293.38;5055075;28;45427;-58
2021/07/01 04:44:28;;;;;;;;;38.50;34.75;;;;;22.66;47.74;101297.81;5056369;28;45255;-58
2021/07/01 04:46:53;;;;;;;;;49.75;42.75;;;;;22.68;47.74;101300.34;5058397;28;45375;-58
2021/07/01 04:49:19;;;;;;;;;52.75;41.00;;;;;22.68;47.68;101306.50;5059595;28;45269;-59
2021/07/01 04:51:44;;;;;;;;;51.25;42.25;;;;;22.67;47.84;101304.81;5059812;28;45415;-59
2021/07/01 04:54:10;;;;;;;;;46.25;39.50;;;;;22.66;47.86;101295.16;5059727;28;45562;-58
2021/07/01 04:56:45;;;;;;;;;48.50;40.75;;;;;22.66;47.60;101302.22;5059523;28;45608;-58
2021/07/01 04:59:16;;;;;;;;;53.75;44.75;;;;;22.67;47.75;101309.22;5059714;28;45783;-58
2021/07/01 05:01:43;;;;;;;;;49.25;41.50;;;;;22.67;47.66;101303.94;5059540;28;45360;-59
2021/07/01 05:04:10;;;;;;;;;47.00;39.75;;;;;22.67;47.68;101298.66;5059981;28;45914;-58
2021/07/01 05:06:37;;;;;;;;;50.75;43.00;;;;;22.65;47.73;101311.13;5059247;28;46087;-58
2021/07/01 05:09:03;;;;;;;;;45.00;38.00;;;;;22.66;47.82;101315.44;5059423;28;45365;-58
2021/07/01 05:11:30;;;;;;;;;40.75;36.00;;;;;22.66;47.78;101310.16;5058786;28;45313;-58
2021/07/01 05:13:55;;;;;;;;;34.75;32.50;;;;;22.65;47.75;101308.47;5059801;28;45514;-58
2021/07/01 05:16:21;;;;;;;;;37.25;34.25;;;;;22.63;47.70;101311.19;5059178;28;45428;-58
2021/07/01 05:18:46;;;;;;;;;40.75;34.25;;;;;22.63;47.68;101308.53;5059213;28;45428;-59
2021/07/01 05:21:11;;;;;;;;;34.25;31.50;;;;;22.63;47.58;101313.00;5059325;28;45740;-58
2021/07/01 05:23:37;;;;;;;;;34.75;33.00;;;;;22.63;47.90;101313.00;5059410;28;45552;-58
2021/07/01 05:26:02;;;;;;;;;40.50;34.75;;;;;22.65;47.80;101313.75;5058968;28;46732;-58
2021/07/01 05:28:27;;;;;;;;;32.25;31.00;;;;;22.64;47.85;101299.69;5059281;28;45284;-58
2021/07/01 05:30:53;;;;;;;;;31.25;29.50;;;;;22.61;47.93;101299.00;5059092;28;45362;-58
2021/07/01 05:33:18;;;;;;;;;36.00;32.25;;;;;22.60;47.85;101297.31;5059350;28;45470;-58
2021/07/01 05:35:43;;;;;;;;;35.50;33.25;;;;;22.60;47.90;101294.66;5057593;28;45396;-58
2021/07/01 05:38:09;;;;;;;;;39.75;33.50;;;;;22.66;47.78;101318.94;5058444;28;45326;-58
2021/07/01 05:40:34;;;;;;;;;30.75;29.75;;;;;22.67;47.80;101315.38;5058139;28;45323;-58
2021/07/01 05:43:00;;;;;;;;;36.75;31.75;;;;;22.67;47.74;101320.66;5058481;28;45632;-58
2021/07/01 05:45:26;;;;;;;;;30.75;28.50;;;;;22.66;47.89;101323.38;5057883;28;45406;-58
2021/07/01 05:47:51;;;;;;;;;31.50;27.25;;;;;22.67;47.73;101325.94;5057626;28;45256;-58
2021/07/01 05:50:17;;;;;;;;;29.50;27.00;;;;;22.67;47.85;101322.44;5057735;28;45387;-58
2021/07/01 05:52:45;;;;;;;;;28.75;27.50;;;;;22.67;47.88;101323.28;5057743;28;45314;-58
2021/07/01 05:55:12;;;;;;;;;27.75;27.25;;;;;22.68;47.79;101326.78;5057486;28;46008;-58
2021/07/01 05:57:38;;;;;;;;;29.00;28.50;;;;;22.68;47.84;101321.50;5057044;28;45887;-58
2021/07/01 06:00:06;;;;;;;;;24.50;24.50;;;;;22.66;47.53;101313.66;5057777;28;45532;-59
2021/07/01 06:02:31;;;;;;;;;25.25;23.50;;;;;22.69;47.77;101325.84;5056455;28;45514;-59
2021/07/01 06:04:57;;;;;;;;;25.00;24.25;;;;;22.68;47.90;101318.84;5057624;28;46260;-58
2021/07/01 06:07:24;;;;;;;;;28.75;27.50;;;;;22.71;47.59;101331.91;5057382;28;45287;-59
2021/07/01 06:09:56;;;;;;;;;23.50;23.50;;;;;22.73;47.72;101326.50;5056058;28;45305;-58
2021/07/01 06:12:28;;;;;;;;;24.50;23.50;;;;;22.74;47.64;101326.44;5057547;28;45514;-58
2021/07/01 06:14:58;;;;;;;;;24.75;22.00;;;;;22.73;47.77;101324.75;5057079;28;46111;-58
2021/07/01 06:17:29;;;;;;;;;27.25;21.50;;;;;22.75;47.60;101327.28;5055861;28;45766;-58
2021/07/01 06:19:55;;;;;;;;;24.25;22.25;;;;;22.75;47.64;101332.56;5056050;28;45319;-58
2021/07/01 06:22:21;;;;;;;;;23.75;21.00;;;;;22.74;47.69;101331.72;5057366;28;45424;-59
2021/07/01 06:24:53;;;;;;;;;25.25;22.25;;;;;22.75;47.57;101330.78;5056860;28;46635;-58
2021/07/01 06:27:22;;;;;;;;;22.75;22.75;;;;;22.74;47.57;101326.44;5056806;28;45475;-58
2021/07/01 06:29:48;;;;;;;;;22.00;19.25;;;;;22.75;47.61;101333.44;5056963;28;45377;-58
2021/07/01 06:32:15;;;;;;;;;18.00;17.25;;;;;22.73;47.61;101329.16;5057111;28;45458;-58
2021/07/01 06:34:41;;;;;;;;;21.50;17.75;;;;;22.69;47.46;101326.72;5056621;28;45407;-58
2021/07/01 06:37:08;;;;;;;;;17.75;16.25;;;;;22.72;47.50;101333.59;5055441;28;45837;-58
2021/07/01 06:39:36;;;;;;;;;19.50;18.75;;;;;22.75;47.64;101338.72;5015503;28;1160280;-58
2021/07/01 06:42:03;;;;;;;;;19.00;18.00;;;;;22.74;47.41;101337.00;5058431;28;45227;-58
2021/07/01 06:44:30;;;;;;;;;17.75;17.75;;;;;22.74;47.46;101331.72;5056788;28;47009;-58
2021/07/01 06:46:55;;;;;;;;;16.00;16.00;;;;;22.76;47.29;101334.28;5057809;28;45270;-58
2021/07/01 06:49:24;;;;;;;;;17.25;13.75;;;;;22.77;47.48;101328.06;5058013;28;45465;-58
2021/07/01 06:51:54;;;;;;;;;12.75;12.00;;;;;22.77;47.04;101335.97;5058108;28;45464;-58
2021/07/01 06:54:21;;;;;;;;;13.00;13.00;;;;;22.73;46.69;101330.03;5057587;28;45406;-59
2021/07/01 06:56:47;;;;;;;;;8.50;8.50;;;;;22.73;46.38;101337.94;5057742;28;45405;-59
2021/07/01 06:59:13;;;;;;;;;12.00;11.75;;;;;22.69;46.54;101339.91;5056473;28;45367;-59
2021/07/01 07:01:40;;;;;;;;;12.50;11.00;;;;;22.69;46.80;101339.91;5058011;28;45315;-59
2021/07/01 07:04:06;;;;;;;;;10.75;9.50;;;;;22.68;46.67;101342.63;5057580;28;45278;-59
2021/07/01 07:06:33;;;;;;;;;9.25;9.25;;;;;22.67;46.37;101340.91;5039836;28;46472;-55
2021/07/01 07:09:00;;;;;;;;;12.25;11.25;;;;;22.69;46.47;101349.63;5057051;28;45340;-57
2021/07/01 07:11:25;;;;;;;;;10.50;10.50;;;;;22.68;46.19;101353.19;5056464;28;45388;-59
2021/07/01 07:13:51;;;;;;;;;11.00;9.75;;;;;22.66;46.33;101349.78;5057143;28;45518;-59
2021/07/01 07:16:17;;;;;;;;;12.50;9.00;;;;;22.63;46.02;101348.16;5057236;28;45391;-59
2021/07/01 07:18:44;;;;;;;;;12.00;10.25;;;;;22.67;46.22;101357.63;5057524;28;45361;-59
2021/07/01 07:21:19;;;;;;;;;9.00;8.50;;;;;22.66;45.92;101355.94;5057755;28;45359;-59
2021/07/01 07:23:57;;;;;;;;;11.00;9.00;;;;;22.67;45.88;101362.94;5057207;28;46073;-59
2021/07/01 07:26:25;;;;;;;;;9.50;8.50;;;;;22.67;46.03;101360.28;5057251;28;45828;-59
2021/07/01 07:28:53;;;;;;;;;12.75;9.25;;;;;22.65;45.91;101359.50;5055945;28;45523;-58
2021/07/01 07:31:28;;;;;;;;;10.00;10.00;;;;;22.67;46.10;101356.78;5057436;28;45537;-59
2021/07/01 07:33:57;;;;;;;;;10.00;8.50;;;;;22.67;46.02;101362.06;5055586;28;46339;-59
2021/07/01 07:36:25;;;;;;;;;9.75;8.25;;;;;22.69;45.92;101362.84;5056907;28;45703;-59
2021/07/01 07:38:52;;;;;;;;;10.50;10.00;;;;;22.70;46.14;101357.47;5056359;28;45879;-59
2021/07/01 07:41:18;;;;;;;;;10.50;9.75;;;;;22.72;46.01;101349.44;5057477;28;45556;-59
2021/07/01 07:43:45;;;;;;;;;9.50;8.25;;;;;22.73;46.14;101348.53;5056826;28;46682;-59
2021/07/01 07:46:10;;;;;;;;;13.25;11.00;;;;;22.75;46.15;101354.56;5056982;28;45756;-59
2021/07/01 07:48:36;;;;;;;;;10.75;8.25;;;;;22.76;45.91;101348.34;5057181;28;45271;-59
2021/07/01 07:51:02;;;;;;;;;11.00;10.50;;;;;22.77;45.97;101352.66;5057531;28;45585;-59
2021/07/01 07:53:33;;;;;;;;;10.75;9.25;;;;;22.78;45.72;101353.53;5056693;28;46398;-59
2021/07/01 07:56:07;;;;;;;;;13.25;8.75;;;;;22.80;46.01;101349.84;5056571;28;45796;-59
2021/07/01 07:58:38;;;;;;;;;11.25;9.00;;;;;22.83;45.82;101351.47;5039011;28;45495;-59
2021/07/01 08:01:04;;;;;;;;;8.00;8.00;;;;;22.82;45.88;101361.19;5057217;28;45243;-59
2021/07/01 08:03:34;;;;;;;;;10.25;10.25;;;;;22.84;46.01;101359.34;5056581;28;46018;-60
2021/07/01 08:06:02;;;;;;;;;12.50;10.00;;;;;22.85;45.85;101354.88;5056586;28;45348;-59
2021/07/01 08:08:32;;;;;;;;;11.25;9.75;;;;;22.87;45.70;101357.47;5056827;28;45400;-59
2021/07/01 08:11:04;;;;;;;;;9.25;8.75;;;;;22.87;45.91;101355.66;5056837;28;45514;-59
2021/07/01 08:13:30;;;;;;;;;10.75;10.00;;;;;22.89;45.61;101352.91;5056559;28;46151;-59
2021/07/01 08:15:56;;;;;;;;;9.25;9.00;;;;;22.90;45.96;101354.63;5056381;28;45437;-59
2021/07/01 08:18:29;;;;;;;;;12.25;10.00;;;;;22.90;45.59;101349.31;5056512;28;45368;-59
2021/07/01 08:20:55;;;;;;;;;7.75;7.75;;;;;22.91;45.73;101343.09;5056558;28;45577;-59
2021/07/01 08:23:20;;;;;;;;;11.50;9.25;;;;;22.91;45.69;101345.75;5056313;28;46295;-59
2021/07/01 08:25:46;;;;;;;;;14.25;12.25;;;;;22.91;45.93;101343.97;5056359;28;45453;-59
2021/07/01 08:28:17;;;;;;;;;9.00;8.25;;;;;22.91;45.75;101337.81;5056514;28;45317;-59
2021/07/01 08:30:43;;;;;;;;;11.00;10.00;;;;;22.92;45.81;101334.25;5056756;28;45413;-59
2021/07/01 08:33:08;;;;;;;;;12.75;12.00;;;;;22.93;45.68;101341.22;5056096;28;45300;-59
2021/07/01 08:35:35;;;;;;;;;14.00;10.50;;;;;22.94;45.71;101338.50;5056548;28;45332;-59
2021/07/01 08:38:05;;;;;;;;;11.50;9.25;;;;;22.96;45.68;101330.50;5056333;28;45442;-59
2021/07/01 08:40:35;;;;;;;;;13.50;11.00;;;;;22.92;45.56;101331.59;5056426;28;45353;-59
2021/07/01 08:43:03;;;;;;;;;8.25;8.25;;;;;22.95;45.35;101326.16;5056174;28;47312;-59
2021/07/01 08:45:50;;;;;;;;;9.50;9.50;;;;;22.97;45.51;101333.03;5056100;28;45792;-59
2021/07/01 08:48:23;;;;;;;;;14.75;12.25;;;;;22.98;45.40;101339.19;5056188;28;45275;-59
2021/07/01 08:50:53;;;;;;;;;9.50;9.50;;;;;22.97;45.34;101342.78;5056230;28;45536;-59
2021/07/01 08:53:44;;;;;;;;;10.00;10.00;;;;;22.97;45.63;101340.13;5056036;28;46198;-60
2021/07/01 08:56:11;;;;;;;;;12.75;12.00;;;;;22.98;45.35;101339.19;5055907;28;45778;-60
2021/07/01 08:58:48;;;;;;;;;12.00;12.00;;;;;22.96;45.55;101335.78;5056356;28;45437;-58
2021/07/01 09:01:18;;;;;;;;;12.00;10.75;;;;;22.98;45.46;101339.19;5056458;28;45317;-59
2021/07/01 09:03:46;;;;;;;;;12.00;10.75;;;;;22.98;45.37;101339.19;5055681;28;46131;-59
2021/07/01 09:06:22;;;;;;;;;8.25;8.00;;;;;22.99;45.42;101338.22;5055971;28;45651;-59
2021/07/01 09:08:49;;;;;;;;;11.50;11.50;;;;;22.95;45.25;101334.91;5055766;28;45300;-59
2021/07/01 09:11:20;;;;;;;;;15.25;15.25;;;;;22.98;45.39;101341.84;5056129;28;45340;-59
2021/07/01 09:13:48;;;;;;;;;13.75;13.75;;;;;22.96;45.78;101335.78;5055836;28;45638;-59
2021/07/01 09:16:18;;;;;;;;;12.50;11.50;;;;;22.98;45.43;101339.19;5055684;28;45673;-59
2021/07/01 09:18:47;;;;;;;;;14.50;12.25;;;;;22.97;45.31;101340.97;5055899;28;45392;-59
2021/07/01 09:21:15;;;;;;;;;12.75;10.25;;;;;22.97;45.39;101337.47;5055829;28;45335;-59
2021/07/01 09:23:48;;;;;;;;;12.00;11.75;;;;;22.97;45.46;101343.59;5056137;28;45244;-60
2021/07/01 09:26:22;;;;;;;;;14.25;11.00;;;;;22.97;45.56;101342.78;5055606;28;45335;-60
2021/07/01 09:28:50;;;;;;;;;12.25;12.00;;;;;22.97;45.59;101342.78;5054503;28;45380;-59
2021/07/01 09:31:19;;;;;;;;;9.25;9.00;;;;;22.96;45.33;101339.25;5054489;28;45308;-59
2021/07/01 09:33:46;;;;;;;;;15.50;13.25;;;;;22.96;45.51;101341.06;5058669;28;46147;-59
2021/07/01 09:36:13;;;;;;;;;14.25;13.00;;;;;22.95;45.26;101334.91;5058975;28;45325;-59
2021/07/01 09:38:43;;;;;;;;;16.50;15.00;;;;;22.93;45.40;101330.66;5059350;28;45321;-59
2021/07/01 09:41:10;;;;;;;;;14.50;11.75;;;;;22.95;45.32;101337.56;5059619;28;45271;-59
2021/07/01 09:43:38;;;;;;;;;11.50;11.50;;;;;22.95;45.23;101340.19;5058837;28;47391;-60
2021/07/01 09:46:05;;;;;;;;;18.25;13.50;;;;;22.94;45.48;101337.66;5058760;28;45362;-60
2021/07/01 09:48:35;;;;;;;;;14.25;12.50;;;;;22.96;45.22;101351.63;5059043;28;45359;-59
2021/07/01 09:51:03;;;;;;;;;15.50;13.00;;;;;22.96;45.52;101347.19;5059041;28;45313;-60
2021/07/01 09:53:31;;;;;;;;;16.50;14.75;;;;;22.95;45.43;101344.66;5057438;28;47532;-59
2021/07/01 09:56:01;;;;;;;;;16.00;15.50;;;;;22.96;45.40;101349.00;5058527;28;45905;-59
2021/07/01 09:58:30;;;;;;;;;17.00;15.50;;;;;22.94;45.60;101343.78;5058771;28;45230;-59
2021/07/01 10:00:56;;;;;;;;;18.75;16.00;;;;;22.95;45.40;101345.47;5058827;28;45628;-59
2021/07/01 10:03:21;;;;;;;;;12.75;12.75;;;;;22.92;45.33;101342.16;5058537;28;46588;-59
2021/07/01 10:05:47;;;;;;;;;17.50;15.75;;;;;22.96;45.48;101341.06;5058613;28;45386;-60
2021/07/01 10:08:13;;;;;;;;;12.00;12.00;;;;;22.93;45.49;101334.13;5059010;28;45490;-59
2021/07/01 10:10:46;;;;;;;;;14.00;12.75;;;;;22.95;45.30;101329.63;5057763;28;45609;-59
2021/07/01 10:13:13;;;;;;;;;15.00;13.50;;;;;22.96;45.46;101333.13;5074326;28;46985;-59
2021/07/01 10:15:40;;;;;;;;;15.25;14.25;;;;;22.95;45.34;101328.78;5057214;28;45595;-59
2021/07/01 10:18:17;;;;;;;;;13.75;13.00;;;;;22.97;45.38;101333.03;5058526;28;45245;-59
2021/07/01 10:20:50;;;;;;;;;15.75;12.50;;;;;22.98;45.45;101326.81;5059022;28;45153;-59
2021/07/01 10:23:33;;;;;;;;;17.50;14.50;;;;;22.99;45.58;101339.09;5056749;28;47717;-59
2021/07/01 10:26:13;;;;;;;;;17.00;13.50;;;;;22.97;45.48;101332.19;5057946;28;45343;-59
2021/07/01 10:28:40;;;;;;;;;13.00;12.50;;;;;22.99;45.64;101336.44;5058570;28;45375;-59
2021/07/01 10:31:14;;;;;;;;;16.00;16.00;;;;;22.98;45.34;101331.25;5058395;28;45655;-59
2021/07/01 10:33:42;;;;;;;;;13.00;13.00;;;;;22.98;45.38;101336.53;5058218;28;45370;-58
2021/07/01 10:36:16;;;;;;;;;20.75;16.75;;;;;22.96;45.33;101330.50;5056831;28;45390;-59
2021/07/01 10:38:42;;;;;;;;;16.50;14.00;;;;;22.98;45.54;101337.38;5057255;28;45496;-59
2021/07/01 10:41:08;;;;;;;;;16.25;13.50;;;;;22.95;45.43;101334.06;5058296;28;45445;-59
2021/07/01 10:43:38;;;;;;;;;18.25;17.25;;;;;22.98;45.52;101344.47;5056597;28;45460;-59
2021/07/01 10:46:03;;;;;;;;;16.25;14.00;;;;;22.98;45.43;101341.84;5057844;28;45761;-58
2021/07/01 10:48:30;;;;;;;;;16.50;14.75;;;;;22.98;45.77;101341.84;5057900;28;45212;-59
2021/07/01 10:51:12;;;;;;;;;15.50;14.00;;;;;22.97;45.32;101333.03;5056828;28;45298;-59
2021/07/01 10:53:42;;;;;;;;;15.75;14.00;;;;;22.98;45.15;101340.03;5057603;28;47085;-59
2021/07/01 10:56:16;;;;;;;;;16.75;16.75;;;;;22.98;45.36;101337.38;5057354;28;45824;-59
2021/07/01 10:58:43;;;;;;;;;18.75;17.50;;;;;22.96;45.51;101328.69;5058126;28;45403;-59
2021/07/01 11:01:20;;;;;;;;;16.50;12.75;;;;;22.98;45.41;101339.19;5057854;28;45601;-60
2021/07/01 11:03:46;;;;;;;;;19.25;14.00;;;;;22.98;45.48;101344.47;5057621;28;45528;-59
2021/07/01 11:06:16;;;;;;;;;17.75;15.25;;;;;22.98;45.17;101341.84;5057863;28;45358;-60
2021/07/01 11:08:42;;;;;;;;;16.00;15.75;;;;;22.96;45.48;101333.97;5058120;28;45382;-59
2021/07/01 11:11:21;;;;;;;;;20.75;17.00;;;;;22.99;45.26;101340.88;5057749;28;45564;-60
2021/07/01 11:13:58;;;;;;;;;16.75;16.00;;;;;22.98;45.73;101339.19;5057294;28;45309;-59
2021/07/01 11:16:38;;;;;;;;;16.25;15.00;;;;;22.98;45.28;101340.03;5057177;28;45694;-60